ROMMA est une association bénévole à but non lucratif. Votre soutien est indispensable : ADHERER à ROMMA ou FAIRE un DON

Pinsot - (38, Isère)

Vallée du Haut Bréda (750 m)   Longitude: 06° 06' E   Latitude: 45° 21' N Station partenaire n°101
 

Détail journalier du     <<     >>

Température Precipitation Humidité Pression Vent Dir Rafale Dir. rafale Ensol.
Heure (°C) (mm) (%) (hPa) (km/h) (km/h) (min)
01:00 8.007810083SSO23S0
02:00 12.805410075SSO21S0
03:00 9.7068100810SSO32SSO0
04:00 12.105710085SSO26SSO0
05:00 10.206410085SSO29SO0
06:00 9.706310083SO23SO0
07:00 9.806110085SSO26SSO0
08:00 13.2045100810SSO37SSO0
09:00 14.2041100811SSO35SO0
10:00 13.7045100810SSO31SSE0
11:00 14.704010087SSO29SSO0
12:00 15.803610089SSO32SSO14
13:00 16.004010086SSO26SSE38
14:00 16.503710084SSO23SO23
15:00 16.404110086SSO27SO25
16:00 13.7059100906E14
17:00 10.807110091SSO11E0
18:00 9.507410102SSO13SSO0
19:00 9.407410112SSO15SSO0
20:00 8.208010111SSO8SSO0
21:00 8.507710122SSO11SSO0
22:00 9.107410133SSO13SSO0
23:00 8.407810132SSO10SSO0
minuit 8.507910142SSO10SSO0

Graphique du 17-12-2019

 

Serveur OMMA